Meteorología y climatología de Navarra
Datos de la estación - Meteo Navarra

Estación de Etxarri-Aranatz GN

Altitud 505 m.


Datos desde el 10/10/2019 hasta el 11/10/2019 en horario solar
Los datos son PROVISIONALES

Anterior Página 1 de 1 Siguiente Descargar: Formato para Excel 2000 o superior   Formato csv   Formato para OpenOffice Calc
Fecha Temperatura Humedad relativa Radiación global Insolación Precipitación Vel. viento 10 m Vel. viento 10 m Dir. viento 10 m
ºC % W/m² s l/m² m/s km/h º
10/10/2019 0:00 7.1 95 0.0 0 0.0 0.8 2.8 180
10/10/2019 0:10 7.4 96 0.0 0 0.0 1.1 4.0 203
10/10/2019 0:20 7.9 96 0.0 0 0.0 0.5 1.8 260
10/10/2019 0:30 8.0 95 0.0 0 0.0 0.7 2.5 286
10/10/2019 0:40 8.0 94 0.0 0 0.0 1.0 3.5 321
10/10/2019 0:50 8.1 94 0.0 0 0.0 0.9 3.1 299
10/10/2019 1:00 7.9 94 0.0 0 0.0 0.4 1.5 308
10/10/2019 1:10 7.7 94 0.0 0 0.0 0.5 1.7 268
10/10/2019 1:20 7.4 94 0.0 0 0.0 0.3 1.0 182
10/10/2019 1:30 7.2 94 0.0 0 0.0 0.4 1.4 30
10/10/2019 1:40 6.9 94 0.0 0 0.0 0.4 1.5 125
10/10/2019 1:50 6.5 94 0.0 0 0.0 0.7 2.6 203
10/10/2019 2:00 6.7 95 0.0 0 0.0 0.5 1.9 289
10/10/2019 2:10 6.6 95 0.0 0 0.0 0.5 1.8 200
10/10/2019 2:20 6.7 96 0.0 0 0.0 0.7 2.4 253
10/10/2019 2:30 6.6 95 0.0 0 0.0 0.3 1.2 126
10/10/2019 2:40 6.7 96 0.0 0 0.0 0.1 0.2 224
10/10/2019 2:50 6.5 95 0.0 0 0.0 0.5 1.8 194
10/10/2019 3:00 6.1 95 0.0 0 0.0 0.6 2.0 251
10/10/2019 3:10 6.6 96 0.0 0 0.0 0.4 1.5 288
10/10/2019 3:20 6.3 96 0.0 0 0.0 0.7 2.5 228
10/10/2019 3:30 6.4 96 0.0 0 0.0 0.9 3.2 165
10/10/2019 3:40 6.4 96 0.0 0 0.0 0.6 2.0 169
10/10/2019 3:50 6.3 96 0.0 0 0.0 0.4 1.5 209
10/10/2019 4:00 6.1 96 0.0 0 0.0 0.8 2.8 229
10/10/2019 4:10 6.0 96 0.0 0 0.0 0.8 2.9 279
10/10/2019 4:20 6.1 96 0.0 0 0.0 0.3 0.9 2
10/10/2019 4:30 5.8 96 0.0 0 0.0 0.3 1.2 263
10/10/2019 4:40 5.4 96 0.0 0 0.0 0.3 1.1 270
10/10/2019 4:50 5.3 96 0.0 0 0.0 0.5 1.8 166
10/10/2019 5:00 5.4 96 0.0 0 0.0 0.2 0.5 327
10/10/2019 5:10 4.9 96 0.0 0 0.0 0.4 1.3 209
10/10/2019 5:20 4.3 96 0.0 0 0.0 0.3 0.9 162
10/10/2019 5:30 4.2 96 0.0 0 0.0 0.2 0.6 175
10/10/2019 5:40 4.7 97 0.0 0 0.0 0.3 1.1 306
10/10/2019 5:50 4.1 96 0.0 0 0.0 0.3 1.0 184
10/10/2019 6:00 3.6 96 0.0 0 0.0 0.6 2.1 184
10/10/2019 6:10 3.2 96 0.0 0 0.0 0.8 3.0 168
10/10/2019 6:20 3.2 96 0.0 0 0.0 0.7 2.6 205
10/10/2019 6:30 3.3 96 0.0 0 0.0 0.2 0.8 249
10/10/2019 6:40 3.4 97 12.2 0 0.0 0.4 1.5 280
10/10/2019 6:50 3.9 97 23.8 0 0.0 1.1 4.0 323
10/10/2019 7:00 4.2 97 36.6 26 0.0 0.6 2.1 295
10/10/2019 7:10 3.7 96 57.3 114 0.0 0.8 2.7 187
10/10/2019 7:20 3.9 97 141.7 450 0.0 0.7 2.4 180
10/10/2019 7:30 5.1 98 189.5 600 0.0 0.5 1.7 175
10/10/2019 7:40 5.9 97 198.6 600 0.0 0.9 3.1 211
10/10/2019 7:50 6.8 97 210.3 600 0.0 0.9 3.2 217
10/10/2019 8:00 7.5 96 225.3 600 0.0 1.1 3.8 217
10/10/2019 8:10 8.1 94 250.1 600 0.0 0.5 1.8 272
10/10/2019 8:20 8.9 92 282.0 600 0.0 1.1 4.0 214
10/10/2019 8:30 10.0 87 322.9 600 0.0 1.3 4.5 208
10/10/2019 8:40 10.8 83 361.6 600 0.0 1.2 4.3 235
10/10/2019 8:50 11.4 81 402.0 600 0.0 1.4 5.1 227
10/10/2019 9:00 12.1 78 436.1 600 0.0 1.7 6.0 220
10/10/2019 9:10 12.7 76 457.1 600 0.0 1.5 5.4 228
10/10/2019 9:20 13.5 73 476.2 600 0.0 1.5 5.3 205
10/10/2019 9:30 14.0 72 504.3 600 0.0 1.4 4.9 206
10/10/2019 9:40 15.0 69 527.7 600 0.0 1.6 5.7 214
10/10/2019 9:50 15.3 67 549.9 600 0.0 0.8 2.8 240
10/10/2019 10:00 15.2 66 569.5 600 0.0 1.1 3.8 251
10/10/2019 10:10 15.9 63 589.7 600 0.0 1.3 4.8 239
10/10/2019 10:20 16.5 59 605.8 600 0.0 1.2 4.4 251
10/10/2019 10:30 16.3 56 621.8 600 0.0 1.0 3.6 284
10/10/2019 10:40 16.3 58 636.5 600 0.0 1.0 3.6 276
10/10/2019 10:50 16.8 57 647.7 600 0.0 1.2 4.2 303
10/10/2019 11:00 16.7 57 655.7 600 0.0 0.8 2.8 306
10/10/2019 11:10 16.8 56 663.7 600 0.0 0.6 2.2 301
10/10/2019 11:20 17.3 57 671.1 600 0.0 0.9 3.1 306
10/10/2019 11:30 17.7 55 673.4 600 0.0 0.6 2.1 313
10/10/2019 11:40 18.1 54 682.0 600 0.0 0.9 3.2 351
10/10/2019 11:50 18.2 55 682.0 600 0.0 0.7 2.6 36
10/10/2019 12:00 17.8 54 682.2 600 0.0 0.9 3.2 320
10/10/2019 12:10 18.2 52 682.8 600 0.0 0.6 2.2 314
10/10/2019 12:20 18.9 50 682.1 600 0.0 0.9 3.1 320
10/10/2019 12:30 19.2 48 676.6 600 0.0 0.7 2.4 40
10/10/2019 12:40 19.2 48 671.1 600 0.0 0.8 2.8 26
10/10/2019 12:50 19.4 47 655.3 600 0.0 1.1 3.9 314
10/10/2019 13:00 19.5 49 651.0 600 0.0 0.8 2.8 265
10/10/2019 13:10 20.2 48 643.5 600 0.0 1.5 5.4 236
10/10/2019 13:20 20.8 47 631.3 600 0.0 1.6 5.7 230
10/10/2019 13:30 21.2 45 616.4 600 0.0 1.7 5.9 218
10/10/2019 13:40 21.6 45 602.9 600 0.0 2.0 7.0 222
10/10/2019 13:50 21.5 44 582.8 600 0.0 1.4 5.0 242
10/10/2019 14:00 20.5 46 563.0 600 0.0 1.3 4.8 295
10/10/2019 14:10 20.6 46 543.9 600 0.0 2.0 7.2 254
10/10/2019 14:20 20.7 44 522.2 600 0.0 1.3 4.6 284
10/10/2019 14:30 20.6 44 499.3 600 0.0 1.4 5.0 266
10/10/2019 14:40 20.6 43 476.2 600 0.0 1.7 6.2 263
10/10/2019 14:50 20.7 43 450.7 600 0.0 1.6 5.8 255
10/10/2019 15:00 20.8 42 424.4 600 0.0 1.3 4.7 283
10/10/2019 15:10 20.1 44 397.3 600 0.0 1.3 4.6 285
10/10/2019 15:20 20.3 44 370.0 600 0.0 1.8 6.3 277
10/10/2019 15:30 20.6 44 341.1 600 0.0 1.5 5.5 260
10/10/2019 15:40 20.5 45 311.0 600 0.0 1.3 4.7 259
10/10/2019 15:50 20.3 46 280.5 600 0.0 1.3 4.5 283
10/10/2019 16:00 19.8 49 249.1 600 0.0 1.1 4.1 293
10/10/2019 16:10 19.6 51 218.0 600 0.0 1.0 3.5 296
10/10/2019 16:20 19.5 52 186.5 600 0.0 1.1 3.9 299
10/10/2019 16:30 19.2 54 154.9 600 0.0 1.0 3.6 302
10/10/2019 16:40 18.8 55 124.9 600 0.0 0.9 3.3 300
10/10/2019 16:50 18.5 57 96.4 600 0.0 0.7 2.4 294
10/10/2019 17:00 18.0 59 69.5 600 0.0 0.7 2.4 295
10/10/2019 17:10 17.4 61 43.4 524 0.0 0.9 3.3 266
10/10/2019 17:20 16.7 64 5.5 0 0.0 1.0 3.7 267
10/10/2019 17:30 16.2 66 0.0 0 0.0 1.2 4.5 256
10/10/2019 17:40 15.7 68 0.0 0 0.0 1.3 4.7 236
10/10/2019 17:50 15.0 70 0.0 0 0.0 0.3 1.2 222
10/10/2019 18:00 14.1 73 0.0 0 0.0 0.4 1.3 106
10/10/2019 18:10 13.3 75 0.0 0 0.0 0.9 3.2 194
10/10/2019 18:20 12.5 78 0.0 0 0.0 0.9 3.1 180
10/10/2019 18:30 11.9 80 0.0 0 0.0 0.4 1.5 259
10/10/2019 18:40 11.8 81 0.0 0 0.0 0.2 0.8 282
10/10/2019 18:50 11.2 82 0.0 0 0.0 0.3 0.9 185
10/10/2019 19:00 11.2 84 0.0 0 0.0 0.5 1.7 282
10/10/2019 19:10 10.3 83 0.0 0 0.0 0.5 1.8 171
10/10/2019 19:20 10.1 87 0.0 0 0.0 0.1 0.4 160
10/10/2019 19:30 9.9 86 0.0 0 0.0 0.4 1.5 180
10/10/2019 19:40 9.3 87 0.0 0 0.0 1.1 3.9 171
10/10/2019 19:50 9.0 89 0.0 0 0.0 0.3 1.1 174
10/10/2019 20:00 8.8 89 0.0 0 0.0 0.3 1.0 174
10/10/2019 20:10 8.9 91 0.0 0 0.0 0.4 1.5 338
10/10/2019 20:20 8.7 90 0.0 0 0.0 0.3 1.0 323
10/10/2019 20:30 7.9 89 0.0 0 0.0 0.3 1.1 232
10/10/2019 20:40 7.7 91 0.0 0 0.0 0.8 2.9 182
10/10/2019 20:50 8.2 93 0.0 0 0.0 0.2 0.7 139
10/10/2019 21:00 8.1 93 0.0 0 0.0 0.3 1.0 194
10/10/2019 21:10 7.3 92 0.0 0 0.0 0.5 1.7 163
10/10/2019 21:20 7.6 94 0.0 0 0.0 0.4 1.6 230
10/10/2019 21:30 7.6 93 0.0 0 0.0 0.5 1.7 252
10/10/2019 21:40 7.0 93 0.0 0 0.0 0.4 1.4 91
10/10/2019 21:50 6.9 94 0.0 0 0.0 0.1 0.4 14
10/10/2019 22:00 6.9 94 0.0 0 0.0 0.3 1.0 259
10/10/2019 22:10 6.5 94 0.0 0 0.0 0.6 2.3 183
10/10/2019 22:20 6.4 94 0.0 0 0.0 0.5 1.7 166
10/10/2019 22:30 6.3 95 0.0 0 0.0 0.3 0.9 13
10/10/2019 22:40 6.6 95 0.0 0 0.0 0.4 1.5 98
10/10/2019 22:50 6.5 95 0.0 0 0.0 0.5 1.9 334
10/10/2019 23:00 6.2 95 0.0 0 0.0 0.5 1.8 253
10/10/2019 23:10 6.0 95 0.0 0 0.0 0.5 1.9 259
10/10/2019 23:20 6.3 96 0.0 0 0.0 0.9 3.1 281
10/10/2019 23:30 6.4 96 0.0 0 0.0 0.7 2.5 285
10/10/2019 23:40 6.2 95 0.0 0 0.0 0.4 1.5 295
10/10/2019 23:50 6.6 96 0.0 0 0.0 0.9 3.3 319
Anterior Página 1 de 1 Siguiente

NOTA: Tipo de datos según el color:
   - Valores diarios o 10 minutos correctos
   - Valores diarios calculados a partir de un número de datos 10 minutos menor que 144 y mayor que 120, o de un número de datos semihorarios menor que 48 y mayor que 40 (caso de las estaciones de Riegos de Navarra y del MARM)
   - Valores diez minutos estimados


Contacto        Enlaces        Aviso legal